Norfolk, Virginia
Traffic Map
Current Weather Conditions
Norfolk, Virginia
Overcast Haze
Overcast

Feels Like: 6°
Wind Chill: Ceiling: 200
Heat Index: Visibility: 2mi
Dew Point: Wind: 8mph
Humidity: 100% Direction: 20° (NNE)
Pressure: 30.52in Gusts: 0mph
Raw Report DataKORF 231020Z 02007KT 2SM BR OVC002 08/08 A3052 RMK AO2 T00780078 $
Traffic Incident Summary
Active as of:
Severity:
Category:
InformationThere was an issue retrieving the traffic information for this location. Please try a different location or try again shortly.
Advertisements